Terminal Aerodrome Forecast
Issued by NWS Shreveport, LA

Home | Current Version | Previous Version | Text Only | Print | Product List | Glossary On
Versions: 1 2 3 4 5 6 7 8 9 10 11 12 13 14 15 16
000
FTUS44 KSHV 051135
TAFTYR
TAF
KTYR 051135Z 0512/0612 18006KT P6SM SCT110
     FM051500 20006KT P6SM SCT025 SCT110
     FM051700 19007KT P6SM SCT045
     FM060200 15005KT P6SM FEW070 SCT250
     FM060600 16004KT P6SM SCT250=

USA.gov is the U.S. government's official web portal to all federal, state and local government web resources and services.